createdAt,value
2018-06-01T00:01:46.433Z,41.99
2018-06-01T00:04:21.703Z,42.01
2018-06-01T00:06:52.535Z,41.74
2018-06-01T00:09:23.238Z,43.24
2018-06-01T00:11:55.567Z,45.24
2018-06-01T00:14:27.310Z,49.57
2018-06-01T00:17:00.208Z,52.32
2018-06-01T00:19:32.041Z,53.12
2018-06-01T00:22:03.496Z,56.81
2018-06-01T00:24:34.981Z,57.80
2018-06-01T00:27:06.635Z,58.26
2018-06-01T00:29:38.499Z,59.25
2018-06-01T00:32:10.174Z,59.53
2018-06-01T00:34:41.868Z,60.99
2018-06-01T00:37:14.163Z,62.03
2018-06-01T00:39:46.614Z,62.41
2018-06-01T00:42:18.371Z,62.15
2018-06-01T00:44:49.917Z,61.55
2018-06-01T00:47:22.801Z,61.13
2018-06-01T00:49:55.638Z,61.05
2018-06-01T00:52:30.111Z,60.55
2018-06-01T00:55:25.187Z,60.79
2018-06-01T00:57:58.329Z,61.20
2018-06-01T01:00:31.958Z,61.21
2018-06-01T01:03:05.162Z,61.63
2018-06-01T01:05:39.022Z,62.07
2018-06-01T01:08:13.526Z,62.45
2018-06-01T01:10:46.683Z,62.26
2018-06-01T01:13:19.922Z,62.51
2018-06-01T01:15:53.903Z,62.75
2018-06-01T01:18:26.919Z,62.87
2018-06-01T01:21:01.691Z,62.92
2018-06-01T01:23:34.937Z,63.20
2018-06-01T01:26:08.408Z,63.25
2018-06-01T01:28:41.561Z,63.08
2018-06-01T01:31:14.795Z,63.45
2018-06-01T01:33:48.681Z,63.11
2018-06-01T01:36:21.842Z,63.36
2018-06-01T01:38:55.034Z,64.53
2018-06-01T01:41:29.087Z,63.91
2018-06-01T01:44:02.272Z,64.11
2018-06-01T01:46:35.947Z,63.53
2018-06-01T01:49:10.198Z,63.04
2018-06-01T01:51:43.584Z,62.67
2018-06-01T01:54:16.898Z,62.66
2018-06-01T01:56:50.486Z,62.73
2018-06-01T01:59:24.127Z,61.73
2018-06-01T02:01:57.358Z,61.34
2018-06-01T02:04:31.234Z,61.14
2018-06-01T02:07:04.738Z,61.19
2018-06-01T02:09:38.312Z,60.95
2018-06-01T02:12:12.344Z,60.73
2018-06-01T02:14:45.236Z,60.56
2018-06-01T02:17:19.046Z,60.99
2018-06-01T02:19:52.078Z,60.86
2018-06-01T02:22:25.583Z,59.84
2018-06-01T02:24:58.926Z,59.39
2018-06-01T02:27:32.478Z,58.51
2018-06-01T02:30:09.011Z,58.34
2018-06-01T02:32:42.246Z,58.47
2018-06-01T02:35:15.648Z,58.91
2018-06-01T02:37:49.078Z,58.23
2018-06-01T02:40:22.308Z,58.44
2018-06-01T02:42:55.718Z,59.46
2018-06-01T02:45:29.827Z,59.85
2018-06-01T02:48:03.292Z,59.90
2018-06-01T02:50:36.155Z,59.92
2018-06-01T02:53:09.555Z,60.02
2018-06-01T02:55:42.736Z,59.99
2018-06-01T02:58:16.826Z,60.37
2018-06-01T03:00:49.989Z,60.26
2018-06-01T03:03:23.246Z,60.28
2018-06-01T03:05:56.802Z,60.15
2018-06-01T03:08:30.154Z,59.95
2018-06-01T03:11:03.086Z,60.24
2018-06-01T03:13:37.317Z,59.92
2018-06-01T03:16:11.270Z,59.89
2018-06-01T03:18:44.500Z,59.77
2018-06-01T03:21:19.682Z,60.04
2018-06-01T03:23:52.871Z,59.62
2018-06-01T03:26:26.069Z,59.51
2018-06-01T03:28:59.180Z,59.61
2018-06-01T03:31:32.392Z,59.95
2018-06-01T03:34:05.889Z,59.86
2018-06-01T03:36:39.167Z,59.74
2018-06-01T03:39:12.363Z,59.86
2018-06-01T03:41:45.612Z,60.13
2018-06-01T03:44:19.737Z,60.05
2018-06-01T03:46:53.258Z,59.63
2018-06-01T03:49:26.391Z,59.64
2018-06-01T03:51:59.628Z,59.72
2018-06-01T03:54:33.074Z,60.09
2018-06-01T03:57:05.393Z,60.57
2018-06-01T03:59:39.355Z,60.53
2018-06-01T04:02:13.198Z,60.33
2018-06-01T04:04:46.454Z,60.13
2018-06-01T04:07:20.119Z,60.40
2018-06-01T04:09:53.339Z,60.07
2018-06-01T04:12:26.747Z,59.98
2018-06-01T04:15:00.563Z,60.33
2018-06-01T04:17:35.675Z,60.90
2018-06-01T04:20:09.163Z,60.50
2018-06-01T04:22:42.897Z,60.16
2018-06-01T04:25:16.850Z,60.28
2018-06-01T04:27:51.137Z,60.23
2018-06-01T04:30:24.506Z,59.82
2018-06-01T04:32:57.714Z,59.36
2018-06-01T04:35:30.851Z,59.59
2018-06-01T04:38:04.315Z,60.33
2018-06-01T04:40:37.558Z,60.09
2018-06-01T04:43:11.565Z,59.39
2018-06-01T04:45:45.912Z,59.46
2018-06-01T04:48:18.247Z,58.62
2018-06-01T04:50:51.488Z,58.52
2018-06-01T04:53:23.652Z,58.76
2018-06-01T04:55:57.026Z,58.75
2018-06-01T04:58:29.510Z,59.31
2018-06-01T05:01:01.658Z,59.60
2018-06-01T05:03:34.978Z,59.20
2018-06-01T05:06:08.532Z,58.80
2018-06-01T05:08:42.546Z,58.68
2018-06-01T05:11:14.556Z,58.37
2018-06-01T05:13:47.403Z,57.75
2018-06-01T05:16:21.067Z,57.72
2018-06-01T05:18:55.033Z,57.72
2018-06-01T05:21:28.202Z,58.55
2018-06-01T05:24:01.399Z,58.15
2018-06-01T05:26:39.081Z,57.52
2018-06-01T05:29:12.481Z,57.27
2018-06-01T05:31:47.067Z,57.64
2018-06-01T05:34:21.017Z,57.72
2018-06-01T05:36:55.434Z,56.68
2018-06-01T05:39:28.629Z,56.91
2018-06-01T05:42:03.001Z,57.54
2018-06-01T05:44:34.439Z,57.25
2018-06-01T05:47:07.963Z,57.11
2018-06-01T05:49:41.617Z,56.33
2018-06-01T05:52:16.154Z,56.35
2018-06-01T05:54:48.392Z,56.24
2018-06-01T05:57:19.656Z,56.32
2018-06-01T05:59:52.880Z,56.76
2018-06-01T06:02:24.777Z,57.22
2018-06-01T06:04:58.699Z,57.04
2018-06-01T06:07:32.001Z,56.87
2018-06-01T06:10:05.474Z,56.87
2018-06-01T06:12:36.817Z,56.41
2018-06-01T06:15:10.086Z,56.72
2018-06-01T06:17:43.811Z,55.67
2018-06-01T06:20:15.982Z,56.18
2018-06-01T06:22:50.991Z,57.16
2018-06-01T06:25:24.970Z,57.00
2018-06-01T06:27:57.019Z,55.58
2018-06-01T06:30:30.380Z,55.46
2018-06-01T06:33:02.670Z,56.14
2018-06-01T06:35:34.926Z,55.72
2018-06-01T06:38:06.367Z,55.61
2018-06-01T06:40:38.309Z,55.09
2018-06-01T06:43:10.327Z,54.84
2018-06-01T06:45:43.384Z,53.55
2018-06-01T06:48:17.261Z,53.82
2018-06-01T06:50:50.426Z,53.52
2018-06-01T06:53:23.880Z,53.15
2018-06-01T06:55:58.615Z,53.21
2018-06-01T06:58:30.850Z,52.71
2018-06-01T07:01:04.805Z,52.44
2018-06-01T07:03:37.078Z,51.94
2018-06-01T07:06:10.219Z,50.63
2018-06-01T07:08:41.943Z,51.10
2018-06-01T07:11:15.168Z,51.63
2018-06-01T07:13:47.422Z,50.89
2018-06-01T07:16:21.351Z,50.13
2018-06-01T07:18:52.944Z,49.02
2018-06-01T07:21:25.660Z,48.65
2018-06-01T07:23:58.548Z,48.26
2018-06-01T07:26:29.995Z,48.15
2018-06-01T07:29:01.542Z,48.89
2018-06-01T07:31:33.719Z,49.14
2018-06-01T07:34:06.126Z,48.57
2018-06-01T07:36:38.394Z,48.17
2018-06-01T07:39:10.945Z,47.71
2018-06-01T07:41:42.363Z,47.86
2018-06-01T07:44:14.566Z,48.12
2018-06-01T07:46:46.247Z,47.77
2018-06-01T07:49:17.639Z,48.50
2018-06-01T07:51:49.127Z,46.92
2018-06-01T07:54:20.598Z,46.85
2018-06-01T07:56:52.858Z,47.31
2018-06-01T07:59:24.175Z,47.73
2018-06-01T08:01:56.431Z,47.80
2018-06-01T08:04:28.962Z,47.40
2018-06-01T08:07:03.838Z,47.46
2018-06-01T08:09:36.935Z,47.07
2018-06-01T08:12:10.063Z,46.32
2018-06-01T08:14:41.187Z,46.46
2018-06-01T08:17:13.605Z,46.28
2018-06-01T08:19:45.810Z,45.93
2018-06-01T08:22:17.167Z,45.83
2018-06-01T08:24:49.910Z,45.60
2018-06-01T08:27:22.076Z,44.47
2018-06-01T08:29:54.378Z,42.72
2018-06-01T08:32:26.023Z,41.96
2018-06-01T08:34:57.733Z,42.08
2018-06-01T08:37:30.188Z,41.94
2018-06-01T08:40:02.154Z,42.18
2018-06-01T08:42:34.234Z,42.77
2018-06-01T08:45:07.968Z,42.90
2018-06-01T08:47:39.651Z,43.63
2018-06-01T08:50:11.100Z,43.95
2018-06-01T08:52:42.605Z,43.27
2018-06-01T08:55:13.887Z,42.31
2018-06-01T08:57:46.247Z,41.60
2018-06-01T09:00:17.663Z,42.08
2018-06-01T09:02:49.006Z,42.61
2018-06-01T09:05:20.375Z,41.74
2018-06-01T09:07:51.713Z,42.33
2018-06-01T09:10:23.415Z,41.80
2018-06-01T09:12:55.971Z,41.98
2018-06-01T09:15:27.839Z,41.54
2018-06-01T09:17:59.130Z,40.80
2018-06-01T09:20:30.546Z,40.69
2018-06-01T09:23:02.963Z,41.02
2018-06-01T09:25:34.362Z,41.18
2018-06-01T09:28:08.022Z,41.59
2018-06-01T09:30:40.592Z,42.18
2018-06-01T09:33:12.030Z,42.72
2018-06-01T09:35:45.294Z,42.88
2018-06-01T09:38:17.635Z,42.64
2018-06-01T09:40:51.705Z,42.61
2018-06-01T09:43:25.664Z,42.69
2018-06-01T09:45:59.382Z,42.52
2018-06-01T09:48:31.783Z,42.88
2018-06-01T09:51:04.188Z,42.21
2018-06-01T09:53:36.467Z,41.40
2018-06-01T09:56:10.000Z,42.46
2018-06-01T09:58:42.255Z,42.54
2018-06-01T10:01:14.594Z,42.40
2018-06-01T10:03:46.798Z,42.49
2018-06-01T10:06:18.099Z,43.08
2018-06-01T10:08:49.409Z,42.93
2018-06-01T10:11:20.862Z,42.07
2018-06-01T10:13:52.663Z,41.57
2018-06-01T10:16:26.689Z,40.84
2018-06-01T10:19:00.033Z,40.42
2018-06-01T10:21:33.019Z,40.61
2018-06-01T10:24:05.138Z,40.34
2018-06-01T10:26:36.942Z,40.61
2018-06-01T10:29:08.488Z,39.85
2018-06-01T10:31:39.922Z,40.46
2018-06-01T10:34:29.381Z,40.04
2018-06-01T10:37:00.767Z,40.80
2018-06-01T10:39:32.200Z,41.15
2018-06-01T10:42:04.208Z,40.77
2018-06-01T10:44:37.535Z,40.95
2018-06-01T10:47:09.436Z,39.23
2018-06-01T10:49:41.616Z,38.41
2018-06-01T10:52:13.897Z,38.35
2018-06-01T10:54:47.974Z,38.92
2018-06-01T10:57:21.217Z,40.02
2018-06-01T10:59:53.227Z,40.39
2018-06-01T11:02:25.437Z,41.66
2018-06-01T11:04:59.423Z,41.87
2018-06-01T11:07:31.618Z,44.20
2018-06-01T11:10:04.825Z,45.82
2018-06-01T11:12:36.138Z,46.90
2018-06-01T11:15:08.816Z,47.15
2018-06-01T11:17:40.366Z,47.79
2018-06-01T11:20:11.839Z,49.22
2018-06-01T11:22:43.646Z,46.19
2018-06-01T11:25:15.811Z,45.16
2018-06-01T11:27:48.239Z,42.94
2018-06-01T11:30:20.621Z,41.58
2018-06-01T11:32:52.062Z,40.37
2018-06-01T11:35:23.886Z,41.22
2018-06-01T11:37:56.330Z,41.52
2018-06-01T11:40:28.081Z,42.25
2018-06-01T11:43:02.440Z,42.56
2018-06-01T11:45:34.650Z,41.68
2018-06-01T11:48:06.351Z,42.68
2018-06-01T11:50:37.469Z,42.68
2018-06-01T11:53:10.238Z,42.92
2018-06-01T11:55:43.994Z,43.36
2018-06-01T11:58:17.251Z,43.37
2018-06-01T12:00:50.457Z,43.21
2018-06-01T12:03:24.749Z,42.01
2018-06-01T12:05:56.962Z,41.40
2018-06-01T12:08:29.188Z,40.46
2018-06-01T12:11:02.741Z,42.03
2018-06-01T12:13:35.145Z,42.75
2018-06-01T12:16:06.883Z,43.98
2018-06-01T12:18:39.885Z,43.90
2018-06-01T12:21:12.166Z,44.98
2018-06-01T12:23:43.514Z,45.23
2018-06-01T12:28:52.666Z,46.33
2018-06-01T12:31:26.920Z,47.89
2018-06-01T12:34:00.180Z,48.04
2018-06-01T12:36:31.601Z,48.59
2018-06-01T12:39:06.383Z,48.08
2018-06-01T12:41:38.806Z,48.68
2018-06-01T12:44:11.727Z,48.44
2018-06-01T12:46:44.429Z,47.22
2018-06-01T12:49:16.742Z,46.90
2018-06-01T12:51:48.987Z,46.38
2018-06-01T12:54:21.733Z,45.97
2018-06-01T12:56:54.047Z,44.64
2018-06-01T12:59:26.445Z,44.46
2018-06-01T13:01:58.644Z,44.53
2018-06-01T13:04:34.121Z,45.59
2018-06-01T13:07:05.463Z,45.17
2018-06-01T13:09:37.706Z,44.82
2018-06-01T13:12:11.109Z,45.89
2018-06-01T13:14:42.443Z,45.66
2018-06-01T13:17:14.761Z,46.61
2018-06-01T13:19:50.058Z,45.56
2018-06-01T13:22:21.630Z,44.97
2018-06-01T13:24:53.147Z,43.92
2018-06-01T13:27:26.118Z,42.91
2018-06-01T13:29:58.386Z,43.34
2018-06-01T13:32:29.747Z,43.16
2018-06-01T13:35:04.177Z,38.97
2018-06-01T13:37:37.386Z,40.10
2018-06-01T13:40:11.300Z,39.30
2018-06-01T13:42:44.468Z,39.02
2018-06-01T13:45:18.394Z,37.73
2018-06-01T13:47:53.391Z,36.92
2018-06-01T13:50:26.698Z,37.28
2018-06-01T13:53:00.241Z,36.62
2018-06-01T13:55:33.525Z,37.39
2018-06-01T13:58:06.930Z,37.48
2018-06-01T14:00:40.118Z,37.29
2018-06-01T14:03:14.250Z,38.38
2018-06-01T14:05:47.743Z,37.83
2018-06-01T14:08:20.913Z,38.00
2018-06-01T14:10:54.503Z,36.96
2018-06-01T14:13:28.026Z,36.13
2018-06-01T14:16:01.215Z,36.07
2018-06-01T14:18:34.461Z,35.90
2018-06-01T14:21:07.967Z,35.48
2018-06-01T14:23:41.181Z,34.96
2018-06-01T14:26:15.251Z,34.70
2018-06-01T14:28:48.954Z,34.28
2018-06-01T14:31:22.227Z,33.50
2018-06-01T14:33:55.977Z,33.69
2018-06-01T14:36:29.539Z,34.28
2018-06-01T14:39:02.707Z,34.87
2018-06-01T14:41:35.953Z,33.54
2018-06-01T14:44:10.013Z,33.19
2018-06-01T14:46:43.186Z,33.53
2018-06-01T14:49:16.324Z,33.54
2018-06-01T14:51:50.022Z,34.29
2018-06-01T14:54:23.251Z,34.32
2018-06-01T14:56:56.678Z,34.33
2018-06-01T14:59:30.289Z,34.13
2018-06-01T15:02:04.399Z,34.23
2018-06-01T15:04:37.637Z,34.52
2018-06-01T15:07:13.259Z,34.93
2018-06-01T15:09:47.153Z,34.82
2018-06-01T15:12:20.335Z,34.50
2018-06-01T15:14:54.048Z,34.12
2018-06-01T15:17:27.275Z,32.98
2018-06-01T15:20:00.511Z,33.12
2018-06-01T15:22:34.584Z,32.44
2018-06-01T15:25:07.791Z,32.55
2018-06-01T15:27:41.110Z,32.95
2018-06-01T15:30:16.789Z,33.42
2018-06-01T15:32:50.052Z,34.05
2018-06-01T15:35:23.265Z,34.67
2018-06-01T15:37:56.496Z,35.12
2018-06-01T15:40:30.750Z,35.72
2018-06-01T15:43:04.487Z,35.62
2018-06-01T15:45:38.485Z,35.58
2018-06-01T15:57:13.079Z,36.16
2018-06-01T15:59:46.705Z,36.66
2018-06-01T16:02:20.699Z,36.76
2018-06-01T16:04:54.060Z,36.14
2018-06-01T16:07:27.569Z,35.05
2018-06-01T16:10:01.407Z,34.70
2018-06-01T16:12:34.789Z,34.66
2018-06-01T16:15:08.466Z,33.98
2018-06-01T16:17:42.571Z,33.75
2018-06-01T16:23:25.014Z,34.37
2018-06-01T16:25:58.177Z,35.17
2018-06-01T16:28:31.606Z,35.57
2018-06-01T16:34:26.938Z,34.87
2018-06-01T16:37:00.316Z,34.59
2018-06-01T16:39:33.720Z,34.51
2018-06-01T16:42:08.445Z,33.98
2018-06-01T16:44:41.800Z,33.68
2018-06-01T16:47:16.128Z,32.53
2018-06-01T16:49:49.610Z,32.64
2018-06-01T16:52:22.865Z,32.46
2018-06-01T16:54:56.163Z,32.12
2018-06-01T16:57:29.394Z,31.73
2018-06-01T17:02:42.539Z,32.85
2018-06-01T17:05:15.839Z,33.43
2018-06-01T17:07:49.816Z,33.49
2018-06-01T17:10:23.128Z,33.14
2018-06-01T17:12:56.633Z,33.54
2018-06-01T17:15:29.917Z,33.65
2018-06-01T17:18:03.158Z,34.15
2018-06-01T17:20:37.408Z,34.27
2018-06-01T17:23:11.307Z,34.23
2018-06-01T17:25:44.598Z,34.82
2018-06-01T17:28:17.857Z,35.50
2018-06-01T17:30:51.272Z,35.58
2018-06-01T17:33:24.591Z,35.74
2018-06-01T17:35:58.045Z,36.18
2018-06-01T17:38:32.983Z,36.74
2018-06-01T17:41:06.252Z,37.09
2018-06-01T17:43:39.506Z,37.23
2018-06-01T17:46:13.319Z,37.59
2018-06-01T17:48:47.641Z,37.85
2018-06-01T17:51:21.031Z,38.32
2018-06-01T17:53:54.811Z,38.79
2018-06-01T17:56:28.156Z,38.91
2018-06-01T17:59:01.699Z,38.56
2018-06-01T18:01:35.745Z,38.36
2018-06-01T18:04:09.511Z,38.56
2018-06-01T18:06:42.982Z,38.83
2018-06-01T18:09:17.385Z,38.04
2018-06-01T18:11:52.010Z,37.97
2018-06-01T18:14:25.649Z,37.20
2018-06-01T18:17:00.094Z,37.07
2018-06-01T18:19:35.004Z,36.93
2018-06-01T18:22:08.319Z,36.65
2018-06-01T18:24:42.043Z,36.31
2018-06-01T18:27:15.669Z,36.76
2018-06-01T18:29:50.386Z,37.25
2018-06-01T18:32:23.712Z,37.65
2018-06-01T18:34:57.524Z,37.86
2018-06-01T18:37:30.758Z,37.91
2018-06-01T18:40:04.247Z,37.84
2018-06-01T18:42:38.564Z,38.19
2018-06-01T18:45:13.884Z,38.27
2018-06-01T18:47:48.091Z,38.40
2018-06-01T18:50:21.497Z,38.79
2018-06-01T18:52:54.715Z,38.73
2018-06-01T18:55:27.998Z,38.55
2018-06-01T18:58:02.233Z,39.04
2018-06-01T19:00:35.494Z,39.12
2018-06-01T19:03:08.796Z,39.18
2018-06-01T19:05:42.840Z,39.43
2018-06-01T19:08:16.202Z,39.53
2018-06-01T19:10:49.416Z,39.45
2018-06-01T19:13:22.955Z,39.63
2018-06-01T19:15:56.158Z,39.59
2018-06-01T19:18:29.481Z,39.56
2018-06-01T19:21:02.901Z,39.78
2018-06-01T19:23:36.213Z,39.88
2018-06-01T19:26:09.435Z,40.02
2018-06-01T19:28:43.618Z,40.47
2018-06-01T19:31:16.937Z,40.35
2018-06-01T19:33:51.011Z,41.12
2018-06-01T19:36:24.299Z,41.76
2018-06-01T19:38:58.290Z,42.36
2018-06-01T19:41:31.684Z,42.87
2018-06-01T19:44:05.120Z,43.28
2018-06-01T19:46:38.500Z,43.41
2018-06-01T19:49:11.850Z,43.21
2018-06-01T19:51:45.076Z,43.69
2018-06-01T19:54:19.770Z,43.38
2018-06-01T19:56:53.069Z,43.38
2018-06-01T19:59:27.159Z,43.45
2018-06-01T20:02:01.172Z,43.73
2018-06-01T20:04:34.561Z,43.78
2018-06-01T20:07:07.993Z,43.70
2018-06-01T20:09:41.679Z,43.97
2018-06-01T20:12:15.004Z,43.76
2018-06-01T20:14:49.243Z,43.95
2018-06-01T20:17:22.985Z,43.83
2018-06-01T20:19:56.343Z,43.85
2018-06-01T20:22:29.664Z,43.55
2018-06-01T20:25:03.253Z,44.14
2018-06-01T20:27:36.479Z,44.09
2018-06-01T20:30:12.236Z,44.47
2018-06-01T20:32:46.012Z,44.48
2018-06-01T20:35:20.020Z,44.18
2018-06-01T20:37:53.597Z,44.47
2018-06-01T20:40:26.820Z,44.41
2018-06-01T20:43:01.627Z,44.38
2018-06-01T20:45:35.610Z,44.53
2018-06-01T20:48:09.492Z,44.32
2018-06-01T20:50:42.756Z,45.00
2018-06-01T20:53:16.255Z,45.29
2018-06-01T20:55:49.662Z,45.43
2018-06-01T20:58:24.636Z,46.07
2018-06-01T21:00:57.951Z,46.67
2018-06-01T21:03:31.559Z,46.83
2018-06-01T21:06:05.780Z,47.24
2018-06-01T21:08:39.420Z,47.44
2018-06-01T21:11:12.769Z,47.46
2018-06-01T21:13:46.224Z,47.72
2018-06-01T21:16:19.503Z,47.96
2018-06-01T21:18:53.265Z,47.87
2018-06-01T21:21:26.693Z,48.06
2018-06-01T21:24:00.538Z,48.10
2018-06-01T21:26:35.273Z,48.36
2018-06-01T21:29:09.702Z,48.46
2018-06-01T21:31:42.875Z,48.84
2018-06-01T21:34:15.438Z,49.25
2018-06-01T21:36:48.694Z,48.81
2018-06-01T21:39:24.032Z,48.57
2018-06-01T21:41:57.314Z,48.72
2018-06-01T21:44:31.041Z,48.75
2018-06-01T21:47:04.413Z,49.05
2018-06-01T21:49:36.927Z,48.72
2018-06-01T21:52:10.283Z,49.06
2018-06-01T21:54:44.037Z,48.87
2018-06-01T21:57:17.512Z,48.99
2018-06-01T21:59:51.942Z,48.62
2018-06-01T22:02:24.279Z,48.60
2018-06-01T22:04:57.597Z,48.96
2018-06-01T22:07:30.832Z,48.73
2018-06-01T22:10:03.486Z,48.52
2018-06-01T22:12:36.748Z,48.54
2018-06-01T22:15:08.970Z,48.73
2018-06-01T22:17:43.692Z,49.01
2018-06-01T22:20:17.405Z,49.16
2018-06-01T22:22:50.959Z,49.13
2018-06-01T22:25:23.897Z,49.23
2018-06-01T22:27:58.245Z,49.29
2018-06-01T22:30:31.525Z,49.77
2018-06-01T22:33:07.019Z,50.29
2018-06-01T22:35:41.023Z,49.66
2018-06-01T22:38:15.200Z,49.62
2018-06-01T22:40:49.425Z,49.36
2018-06-01T22:43:21.399Z,49.15
2018-06-01T22:45:55.572Z,49.63
2018-06-01T22:48:28.208Z,49.93
2018-06-01T22:50:59.752Z,49.99
2018-06-01T22:53:33.850Z,50.16
2018-06-01T22:56:05.953Z,50.37
2018-06-01T22:58:37.356Z,50.55
2018-06-01T23:01:11.103Z,50.92
2018-06-01T23:03:42.610Z,51.35
2018-06-01T23:06:15.982Z,51.54
2018-06-01T23:08:48.476Z,51.55
2018-06-01T23:11:21.134Z,52.01
2018-06-01T23:13:55.192Z,52.40
2018-06-01T23:16:28.453Z,52.29
2018-06-01T23:19:01.789Z,51.88
2018-06-01T23:21:34.719Z,52.30
2018-06-01T23:24:07.008Z,52.68
2018-06-01T23:26:39.319Z,52.71
2018-06-01T23:29:12.581Z,52.41
2018-06-01T23:31:45.875Z,52.24
2018-06-01T23:34:20.076Z,52.83
2018-06-01T23:36:52.328Z,52.36
2018-06-01T23:39:25.902Z,52.57
2018-06-01T23:41:57.749Z,52.40
2018-06-01T23:44:29.106Z,52.62
2018-06-01T23:47:01.439Z,52.65
2018-06-01T23:49:33.851Z,52.17
2018-06-01T23:52:05.343Z,52.38
2018-06-01T23:54:39.410Z,52.73
2018-06-01T23:57:13.821Z,52.62
2018-06-01T23:59:45.604Z,53.08
